Time;durP1;ratioP1;P1;durP2;ratioP2;P2;SDS_P1;SDS_P2;PMS_P1;PMS_P2;Temp;Humidity;BMP_temperature;BMP_pressure;BME280_temperature;BME280_humidity;BME280_pressure;Samples;Min_cycle;Max_cycle;Signal;HPM_P1;HPM_P2
2023/07/14 00:01:36;;;;;;;;;;;;;;;17.37;75.21;101676.34;5052540;28;1307;-82
2023/07/14 00:04:02;;;;;;;;;;;;;;;17.42;75.11;101671.47;5049906;28;1886;-81
2023/07/14 00:06:27;;;;;;;;;;;;;;;17.47;75.05;101682.34;5024324;28;1387;-84
2023/07/14 00:08:52;;;;;;;;;;;;;;;17.50;75.16;101682.06;5031307;28;1531;-83
2023/07/14 00:11:22;;;;;;;;;;;;;;;17.55;75.09;101683.38;5037693;28;1226;-83
2023/07/14 00:13:48;;;;;;;;;;;;;;;17.56;75.00;101682.44;5045972;28;1127;-82
2023/07/14 00:16:18;;;;;;;;;;;;;;;17.56;74.83;101679.81;5044024;28;1408;-82
2023/07/14 00:18:43;;;;;;;;;;;;;;;17.50;74.69;101670.75;5050079;28;1081;-82
2023/07/14 00:21:13;;;;;;;;;;;;;;;17.47;74.82;101671.84;5050444;28;1165;-82
2023/07/14 00:23:38;;;;;;;;;;;;;;;17.46;75.04;101670.22;5047984;28;1901;-82
2023/07/14 00:26:04;;;;;;;;;;;;;;;17.47;75.00;101671.03;5051583;28;1157;-82
2023/07/14 00:28:30;;;;;;;;;;;;;;;17.44;75.09;101666.09;5029123;28;1344;-82
2023/07/14 00:30:55;;;;;;;;;;;;;;;17.42;75.33;101666.22;5030153;28;1336;-82
2023/07/14 00:33:20;;;;;;;;;;;;;;;17.42;75.09;101668.03;5025382;28;1264;-82
2023/07/14 00:35:47;;;;;;;;;;;;;;;17.44;75.14;101661.69;5043343;28;1142;-82
2023/07/14 00:38:12;;;;;;;;;;;;;;;17.43;75.04;101659.19;5019788;28;1406;-82
2023/07/14 00:40:39;;;;;;;;;;;;;;;17.40;74.97;101649.84;5025961;28;1450;-82
2023/07/14 00:43:06;;;;;;;;;;;;;;;17.42;75.29;101647.88;5042897;28;1244;-82
2023/07/14 00:45:33;;;;;;;;;;;;;;;17.40;75.12;101655.06;5026391;28;1984;-83
2023/07/14 00:48:03;;;;;;;;;;;;;;;17.40;75.14;101657.69;5021457;28;1516;-82
2023/07/14 00:50:34;;;;;;;;;;;;;;;17.37;75.32;101655.34;5032009;28;1426;-82
2023/07/14 00:53:02;;;;;;;;;;;;;;;17.35;75.27;101657.31;5031205;28;1256;-82
2023/07/14 00:55:27;;;;;;;;;;;;;;;17.36;75.65;101648.47;5044767;28;1430;-83
2023/07/14 00:57:54;;;;;;;;;;;;;;;17.32;75.51;101649.78;5033906;28;1252;-83
2023/07/14 01:00:27;;;;;;;;;;;;;;;17.31;75.97;101650.72;5028166;28;1331;-83
2023/07/14 01:02:52;;;;;;;;;;;;;;;17.29;76.02;101647.44;5047455;28;1244;-83
2023/07/14 01:05:18;;;;;;;;;;;;;;;17.24;76.18;101650.50;5047338;28;1897;-82
2023/07/14 01:07:45;;;;;;;;;;;;;;;17.19;76.00;101646.66;5039162;28;1416;-83
2023/07/14 01:10:12;;;;;;;;;;;;;;;17.18;76.20;101645.84;5029874;28;1322;-82
2023/07/14 01:12:40;;;;;;;;;;;;;;;17.07;76.59;101632.13;5050460;28;1292;-83
2023/07/14 01:15:07;;;;;;;;;;;;;;;17.11;76.65;101654.44;5024754;28;1547;-82
2023/07/14 01:17:33;;;;;;;;;;;;;;;17.07;76.94;101642.59;5026930;28;1957;-83
2023/07/14 01:20:00;;;;;;;;;;;;;;;17.01;77.09;101637.97;5049795;28;1266;-82
2023/07/14 01:22:28;;;;;;;;;;;;;;;16.97;76.76;101633.03;5026383;28;1313;-83
2023/07/14 01:24:59;;;;;;;;;;;;;;;16.95;77.33;101634.94;5049176;28;1890;-83
2023/07/14 01:27:24;;;;;;;;;;;;;;;16.92;77.57;101630.03;5026714;28;1344;-84
2023/07/14 01:29:51;;;;;;;;;;;;;;;16.92;77.11;101627.41;5047996;28;1276;-85
2023/07/14 01:32:17;;;;;;;;;;;;;;;16.86;77.72;101635.84;5050675;28;1256;-84
2023/07/14 01:34:44;;;;;;;;;;;;;;;16.84;77.30;101627.28;5045185;28;1252;-84
2023/07/14 01:37:09;;;;;;;;;;;;;;;16.79;77.79;101623.47;5025910;28;1303;-83
2023/07/14 01:39:35;;;;;;;;;;;;;;;16.77;77.79;101636.72;5048877;28;1261;-84
2023/07/14 01:42:00;;;;;;;;;;;;;;;16.73;77.89;101614.38;5031877;28;1428;-84
2023/07/14 01:44:26;;;;;;;;;;;;;;;16.72;78.51;101617.97;5030547;28;1947;-82
2023/07/14 01:46:51;;;;;;;;;;;;;;;16.72;78.19;101618.81;5042956;28;1496;-82
2023/07/14 01:49:17;;;;;;;;;;;;;;;16.74;78.37;101621.25;5047544;28;1534;-83
2023/07/14 01:51:45;;;;;;;;;;;;;;;16.71;78.37;101621.56;5028851;28;1294;-83
2023/07/14 01:54:17;;;;;;;;;;;;;;;16.69;78.71;101626.13;5032059;28;1337;-83
2023/07/14 01:56:42;;;;;;;;;;;;;;;16.69;78.78;101623.50;5052878;28;1276;-83
2023/07/14 01:59:14;;;;;;;;;;;;;;;16.70;78.84;101625.13;5028278;28;1282;-82
2023/07/14 02:01:41;;;;;;;;;;;;;;;16.64;78.87;101620.47;5027596;28;1328;-83
2023/07/14 02:04:09;;;;;;;;;;;;;;;16.62;79.69;101619.78;5048942;28;1886;-83
2023/07/14 02:06:34;;;;;;;;;;;;;;;16.61;79.07;101615.53;5029684;28;1202;-82
2023/07/14 02:09:00;;;;;;;;;;;;;;;16.58;78.68;101616.66;5041348;28;1313;-83
2023/07/14 02:11:26;;;;;;;;;;;;;;;16.59;79.06;101612.22;5041708;28;1208;-83
2023/07/14 02:13:53;;;;;;;;;;;;;;;16.58;79.16;101615.81;5040223;28;1208;-83
2023/07/14 02:16:19;;;;;;;;;;;;;;;16.55;79.31;101613.47;5040028;28;1338;-83
2023/07/14 02:18:45;;;;;;;;;;;;;;;16.52;79.46;101613.78;5035532;28;1183;-83
2023/07/14 02:21:11;;;;;;;;;;;;;;;16.50;79.33;101618.31;5036281;28;1304;-83
2023/07/14 02:23:38;;;;;;;;;;;;;;;16.46;79.54;101610.78;5038332;28;2312;-83
2023/07/14 02:26:06;;;;;;;;;;;;;;;16.48;79.21;101604.56;5033287;28;1260;-83
2023/07/14 02:28:31;;;;;;;;;;;;;;;16.46;79.14;101609.94;5031304;28;1169;-84
2023/07/14 02:31:04;;;;;;;;;;;;;;;16.46;79.81;101607.34;5045395;28;1186;-84
2023/07/14 02:33:34;;;;;;;;;;;;;;;16.45;79.64;101609.09;5048857;28;1195;-84
2023/07/14 02:36:04;;;;;;;;;;;;;;;16.45;79.90;101606.47;5029752;28;1219;-83
2023/07/14 02:38:30;;;;;;;;;;;;;;;16.46;79.17;101610.78;5032163;28;1430;-85
2023/07/14 02:40:55;;;;;;;;;;;;;;;16.48;79.20;101604.56;5045946;28;1056;-84
2023/07/14 02:43:21;;;;;;;;;;;;;;;16.50;79.26;101613.09;5045767;28;1950;-84
2023/07/14 02:46:06;;;;;;;;;;;;;;;16.46;79.37;101610.78;5022461;28;1188;-84
2023/07/14 02:48:37;;;;;;;;;;;;;;;16.45;79.46;101618.75;5029851;28;1199;-83
2023/07/14 02:51:03;;;;;;;;;;;;;;;16.46;79.35;101612.56;5041443;28;1281;-82
2023/07/14 02:53:28;;;;;;;;;;;;;;;16.43;79.80;101611.03;5045187;28;1245;-83
2023/07/14 02:55:53;;;;;;;;;;;;;;;16.45;79.64;101608.28;5048121;28;1072;-83
2023/07/14 02:58:18;;;;;;;;;;;;;;;16.45;79.12;101609.09;5033212;28;1339;-83
2023/07/14 03:00:44;;;;;;;;;;;;;;;16.43;79.38;101608.44;5053665;28;1301;-83
2023/07/14 03:03:09;;;;;;;;;;;;;;;16.41;79.58;101601.69;5043789;28;1471;-83
2023/07/14 03:05:34;;;;;;;;;;;;;;;16.39;79.58;101601.00;5047783;28;1902;-83
2023/07/14 03:08:00;;;;;;;;;;;;;;;16.39;79.24;101601.81;5057854;28;1423;-83
2023/07/14 03:10:26;;;;;;;;;;;;;;;16.37;79.61;101598.53;5037444;28;1515;-83
2023/07/14 03:12:52;;;;;;;;;;;;;;;16.38;79.49;101601.97;5037923;28;1282;-82
2023/07/14 03:15:17;;;;;;;;;;;;;;;16.34;79.82;101606.66;5034839;28;1429;-82
2023/07/14 03:17:42;;;;;;;;;;;;;;;16.32;79.67;101595.53;5047497;28;1640;-83
2023/07/14 03:20:10;;;;;;;;;;;;;;;16.30;79.21;101602.69;5052821;28;1281;-82
2023/07/14 03:22:36;;;;;;;;;;;;;;;16.29;79.39;101600.25;5052398;28;1356;-83
2023/07/14 03:25:01;;;;;;;;;;;;;;;16.27;79.36;101592.50;5035442;28;1950;-85
2023/07/14 03:27:27;;;;;;;;;;;;;;;16.24;79.44;101597.22;5051881;28;1088;-84
2023/07/14 03:29:52;;;;;;;;;;;;;;;16.22;79.92;101599.97;5029321;28;1229;-83
2023/07/14 03:32:17;;;;;;;;;;;;;;;16.18;79.38;101594.19;5054428;28;1216;-82
2023/07/14 03:34:42;;;;;;;;;;;;;;;16.11;80.16;101589.66;5045322;28;1247;-82
2023/07/14 03:37:08;;;;;;;;;;;;;;;16.07;79.91;101588.31;5050326;28;1352;-82
2023/07/14 03:39:33;;;;;;;;;;;;;;;16.08;79.79;101587.34;5048048;28;1218;-82
2023/07/14 03:41:58;;;;;;;;;;;;;;;16.05;80.69;101587.63;5029775;28;1308;-83
2023/07/14 03:44:24;;;;;;;;;;;;;;;16.02;80.18;101587.91;5044216;28;1963;-84
2023/07/14 03:46:50;;;;;;;;;;;;;;;16.01;80.46;101581.03;5040687;28;1262;-84
2023/07/14 03:49:16;;;;;;;;;;;;;;;16.01;80.07;101576.63;5029147;28;1205;-84
2023/07/14 03:51:41;;;;;;;;;;;;;;;16.02;80.60;101577.44;5044046;28;1506;-84
2023/07/14 03:54:07;;;;;;;;;;;;;;;16.01;80.41;101576.63;5046364;28;1279;-83
2023/07/14 03:56:32;;;;;;;;;;;;;;;16.01;80.64;101574.00;5029787;28;1209;-85
2023/07/14 03:58:58;;;;;;;;;;;;;;;16.02;80.47;101577.44;5044027;28;1070;-85
2023/07/14 04:01:25;;;;;;;;;;;;;;;16.00;80.71;101566.28;5025226;28;1566;-84
2023/07/14 04:03:50;;;;;;;;;;;;;;;15.98;80.78;101576.06;5056376;28;1944;-84
2023/07/14 04:06:16;;;;;;;;;;;;;;;15.99;80.74;101572.47;5044575;28;1582;-83
2023/07/14 04:08:42;;;;;;;;;;;;;;;15.98;80.35;101576.06;5036922;28;1255;-82
2023/07/14 04:11:08;;;;;;;;;;;;;;;15.96;80.35;101572.78;5038992;28;1639;-84
2023/07/14 04:13:33;;;;;;;;;;;;;;;15.98;80.95;101573.47;5037598;28;1271;-82
2023/07/14 04:15:58;;;;;;;;;;;;;;;15.98;80.71;101576.91;5030663;28;1437;-82
2023/07/14 04:18:24;;;;;;;;;;;;;;;15.97;81.03;101575.25;5044560;28;1059;-82
2023/07/14 04:20:49;;;;;;;;;;;;;;;15.96;81.04;101567.56;5031171;28;1302;-82
2023/07/14 04:23:15;;;;;;;;;;;;;;;15.98;80.74;101576.06;5045039;28;1160;-82
2023/07/14 04:25:40;;;;;;;;;;;;;;;15.97;80.97;101572.63;5043703;28;1902;-83
2023/07/14 04:28:05;;;;;;;;;;;;;;;15.97;80.84;101579.66;5025620;28;1187;-82
2023/07/14 04:30:31;;;;;;;;;;;;;;;15.96;81.01;101583.25;5052417;28;1112;-82
2023/07/14 04:32:57;;;;;;;;;;;;;;;15.96;81.30;101567.56;5039049;28;1346;-82
2023/07/14 04:35:23;;;;;;;;;;;;;;;15.97;80.68;101566.59;5031312;28;1248;-82
2023/07/14 04:37:48;;;;;;;;;;;;;;;15.98;80.74;101568.22;5048156;28;1215;-82
2023/07/14 04:40:13;;;;;;;;;;;;;;;15.99;80.75;101569.88;5032981;28;1219;-82
2023/07/14 04:42:38;;;;;;;;;;;;;;;15.99;81.23;101562.03;5045619;28;1021;-82
2023/07/14 04:45:04;;;;;;;;;;;;;;;15.99;80.69;101559.41;5036564;28;1902;-82
2023/07/14 04:47:29;;;;;;;;;;;;;;;15.98;80.94;101557.75;5051396;28;1118;-82
2023/07/14 04:49:55;;;;;;;;;;;;;;;15.99;81.24;101567.25;5029799;28;1364;-82
2023/07/14 04:52:20;;;;;;;;;;;;;;;15.97;80.88;101558.72;5051267;28;1145;-82
2023/07/14 04:54:45;;;;;;;;;;;;;;;15.92;81.37;101552.13;5052352;28;1324;-82
2023/07/14 04:57:10;;;;;;;;;;;;;;;15.92;80.94;101567.00;5054015;28;1479;-82
2023/07/14 04:59:36;;;;;;;;;;;;;;;15.91;81.48;101568.78;5036201;28;1315;-83
2023/07/14 05:02:04;;;;;;;;;;;;;;;15.93;81.26;101566.03;5030452;28;1353;-82
2023/07/14 05:04:30;;;;;;;;;;;;;;;15.90;81.20;101567.16;5031679;28;1961;-82
2023/07/14 05:06:55;;;;;;;;;;;;;;;15.89;81.52;101568.13;5049515;28;1134;-82
2023/07/14 05:09:20;;;;;;;;;;;;;;;15.87;81.86;101566.59;5050471;28;1539;-83
2023/07/14 05:11:45;;;;;;;;;;;;;;;15.84;81.89;101559.88;5045101;28;1476;-83
2023/07/14 05:14:11;;;;;;;;;;;;;;;15.86;82.06;101563.16;5058132;28;1088;-83
2023/07/14 05:16:36;;;;;;;;;;;;;;;15.86;81.83;101565.78;5024091;28;1392;-84
2023/07/14 05:19:01;;;;;;;;;;;;;;;15.86;81.93;101560.53;5031415;28;1196;-83
2023/07/14 05:21:26;;;;;;;;;;;;;;;15.87;81.78;101558.75;5027022;28;1221;-85
2023/07/14 05:23:52;;;;;;;;;;;;;;;15.90;82.15;101558.47;5050521;28;1906;-84
2023/07/14 05:26:17;;;;;;;;;;;;;;;15.93;81.87;101564.22;5050608;28;1313;-84
2023/07/14 05:28:42;;;;;;;;;;;;;;;15.96;81.47;101567.56;5049137;28;1437;-84
2023/07/14 05:31:09;;;;;;;;;;;;;;;15.91;81.77;101566.19;5034581;28;1284;-86
2023/07/14 05:33:34;;;;;;;;;;;;;;;15.87;81.74;101559.56;5054029;28;1414;-85
2023/07/14 05:36:00;;;;;;;;;;;;;;;15.87;81.40;101558.75;5057915;28;1272;-84
2023/07/14 05:38:26;;;;;;;;;;;;;;;15.87;81.77;101554.34;5032382;28;1268;-83
2023/07/14 05:40:53;;;;;;;;;;;;;;;15.88;81.80;101549.94;5045586;28;1294;-83
2023/07/14 05:43:19;;;;;;;;;;;;;;;15.93;81.97;101553.78;5036935;28;1295;-83
2023/07/14 05:45:47;;;;;;;;;;;;;;;15.98;81.70;101552.53;5035778;28;1902;-83
2023/07/14 05:48:14;;;;;;;;;;;;;;;16.02;81.67;101548.66;5035054;28;1319;-82
2023/07/14 05:50:39;;;;;;;;;;;;;;;16.07;81.39;101551.69;5035943;28;1217;-84
2023/07/14 05:53:05;;;;;;;;;;;;;;;16.11;81.73;101550.41;5055058;28;1059;-84
2023/07/14 05:55:30;;;;;;;;;;;;;;;16.18;81.98;101554.13;5052313;28;1273;-84
2023/07/14 05:57:56;;;;;;;;;;;;;;;16.25;81.51;101547.34;5052938;28;1277;-85
2023/07/14 06:00:25;;;;;;;;;;;;;;;16.29;81.25;101551.31;5034107;28;1304;-84
2023/07/14 06:02:50;;;;;;;;;;;;;;;16.29;81.28;101553.94;5035449;28;1307;-84
2023/07/14 06:05:19;;;;;;;;;;;;;;;16.30;80.93;101545.09;5033101;28;1895;-86
2023/07/14 06:07:44;;;;;;;;;;;;;;;16.32;81.35;101548.41;5032295;28;1354;-86
2023/07/14 06:10:11;;;;;;;;;;;;;;;16.34;80.89;101545.63;5053831;28;1259;-84
2023/07/14 06:12:36;;;;;;;;;;;;;;;16.34;80.80;101541.22;5028692;28;1330;-82
2023/07/14 06:15:03;;;;;;;;;;;;;;;16.38;80.68;101539.97;5030462;28;1422;-82
2023/07/14 06:17:28;;;;;;;;;;;;;;;16.43;81.06;101542.16;5028100;28;1267;-83
2023/07/14 06:19:53;;;;;;;;;;;;;;;16.50;80.98;101542.38;5032323;28;1099;-82
2023/07/14 06:22:20;;;;;;;;;;;;;;;16.56;80.59;101537.38;5051724;28;1262;-83
2023/07/14 06:24:45;;;;;;;;;;;;;;;16.60;80.52;101540.53;5034344;28;1902;-84
2023/07/14 06:27:11;;;;;;;;;;;;;;;16.66;80.46;101545.19;5037655;28;1246;-83
2023/07/14 06:29:36;;;;;;;;;;;;;;;16.72;80.36;101539.41;5049896;28;1262;-83
2023/07/14 06:32:01;;;;;;;;;;;;;;;16.80;80.52;101542.09;5058070;28;1070;-83
2023/07/14 06:34:27;;;;;;;;;;;;;;;16.87;80.15;101537.91;5047997;28;1098;-83
2023/07/14 06:36:52;;;;;;;;;;;;;;;16.91;79.67;101536.63;5055266;28;982;-83
2023/07/14 06:39:18;;;;;;;;;;;;;;;16.97;79.65;101532.59;5052220;28;1271;-83
2023/07/14 06:41:44;;;;;;;;;;;;;;;16.95;79.32;101530.13;5052195;28;1052;-83
2023/07/14 06:44:09;;;;;;;;;;;;;;;16.95;78.78;101530.13;5031970;28;1893;-84
2023/07/14 06:46:35;;;;;;;;;;;;;;;16.96;78.62;101529.16;5032552;28;1358;-82
2023/07/14 06:49:00;;;;;;;;;;;;;;;16.97;78.55;101528.19;5030706;28;1328;-83
2023/07/14 06:51:25;;;;;;;;;;;;;;;17.04;78.69;101532.84;5045194;28;1158;-83
2023/07/14 06:53:51;;;;;;;;;;;;;;;17.14;78.47;101533.56;5048054;28;1092;-83
2023/07/14 06:56:16;;;;;;;;;;;;;;;17.21;78.14;101524.16;5051036;28;1229;-83
2023/07/14 06:58:41;;;;;;;;;;;;;;;17.29;77.51;101532.06;5047253;28;1158;-82
2023/07/14 07:01:07;;;;;;;;;;;;;;;17.34;77.71;101523.75;5048587;28;1196;-83
2023/07/14 07:03:34;;;;;;;;;;;;;;;17.39;77.33;101527.56;5028549;28;1894;-83
2023/07/14 07:06:00;;;;;;;;;;;;;;;17.44;77.26;101525.31;5048753;28;1207;-82
2023/07/14 07:08:25;;;;;;;;;;;;;;;17.49;76.94;101528.31;5028249;28;1493;-83
2023/07/14 07:10:52;;;;;;;;;;;;;;;17.59;76.80;101524.72;5027774;28;1447;-83
2023/07/14 07:13:17;;;;;;;;;;;;;;;17.62;76.70;101524.44;5024936;28;1313;-81
2023/07/14 07:15:42;;;;;;;;;;;;;;;17.65;76.37;101521.50;5045777;28;1084;-83
2023/07/14 07:18:08;;;;;;;;;;;;;;;17.72;76.26;101517.31;5053484;28;953;-84
2023/07/14 07:20:37;;;;;;;;;;;;;;;17.82;75.59;101511.97;5027073;28;1184;-83
2023/07/14 07:23:03;;;;;;;;;;;;;;;17.90;75.03;101515.47;5046673;28;1007;-83
2023/07/14 07:25:28;;;;;;;;;;;;;;;17.94;75.19;101506.28;5040192;28;1906;-83
2023/07/14 07:27:53;;;;;;;;;;;;;;;18.03;75.22;101504.53;5050840;28;1428;-83
2023/07/14 07:30:18;;;;;;;;;;;;;;;18.14;74.01;101500.81;5052677;28;1173;-82
2023/07/14 07:32:45;;;;;;;;;;;;;;;18.18;73.98;101499.47;5042142;28;1258;-84
2023/07/14 07:35:10;;;;;;;;;;;;;;;18.27;73.60;101509.88;5034746;28;1292;-84
2023/07/14 07:37:36;;;;;;;;;;;;;;;18.33;73.48;101499.72;5043750;28;1061;-83
2023/07/14 07:40:02;;;;;;;;;;;;;;;18.36;73.33;101504.66;5048557;28;1312;-84
2023/07/14 07:42:28;;;;;;;;;;;;;;;18.40;73.12;101504.16;5044990;28;1402;-83
2023/07/14 07:44:53;;;;;;;;;;;;;;;18.46;72.43;101506.13;5045623;28;1955;-82
2023/07/14 07:47:19;;;;;;;;;;;;;;;18.49;72.16;101500.59;5046598;28;1260;-83
2023/07/14 07:49:44;;;;;;;;;;;;;;;18.57;71.93;101500.59;5044193;28;1549;-83
2023/07/14 07:52:11;;;;;;;;;;;;;;;18.65;71.49;101499.00;5049775;28;1189;-82
2023/07/14 07:54:37;;;;;;;;;;;;;;;18.72;71.83;101500.00;5042632;28;1249;-83
2023/07/14 07:57:03;;;;;;;;;;;;;;;18.73;71.38;101491.13;5045165;28;1181;-83
2023/07/14 07:59:28;;;;;;;;;;;;;;;18.79;71.90;101485.22;5027643;28;1261;-83
2023/07/14 08:01:53;;;;;;;;;;;;;;;18.83;71.53;101487.38;5045799;28;1494;-83
2023/07/14 08:04:18;;;;;;;;;;;;;;;18.94;70.38;101488.03;5043084;28;1894;-82
2023/07/14 08:06:43;;;;;;;;;;;;;;;18.99;70.17;101486.56;5023534;28;1309;-83
2023/07/14 08:09:09;;;;;;;;;;;;;;;19.13;70.20;101486.88;5040781;28;1185;-82
2023/07/14 08:11:35;;;;;;;;;;;;;;;19.18;69.91;101489.84;5019280;28;1241;-84
2023/07/14 08:14:04;;;;;;;;;;;;;;;19.18;69.01;101485.41;5046431;28;1234;-84
2023/07/14 08:16:30;;;;;;;;;;;;;;;19.22;68.90;101481.47;5023970;28;1304;-84
2023/07/14 08:18:55;;;;;;;;;;;;;;;19.26;69.49;101482.75;5027879;28;1307;-84
2023/07/14 08:21:20;;;;;;;;;;;;;;;19.28;69.06;101485.25;5058750;28;1117;-84
2023/07/14 08:23:45;;;;;;;;;;;;;;;19.30;68.93;101483.25;5038252;28;1941;-83
2023/07/14 08:26:12;;;;;;;;;;;;;;;19.31;67.73;101484.91;5033305;28;1331;-84
2023/07/14 08:28:38;;;;;;;;;;;;;;;19.33;68.69;101493.47;5040766;28;1386;-84
2023/07/14 08:31:06;;;;;;;;;;;;;;;19.31;68.29;101490.16;5051071;28;1128;-82
2023/07/14 08:33:31;;;;;;;;;;;;;;;19.32;68.18;101492.63;5051266;28;995;-85
2023/07/14 08:36:00;;;;;;;;;;;;;;;19.36;68.02;101490.47;5029551;28;1299;-84
2023/07/14 08:38:26;;;;;;;;;;;;;;;19.35;67.04;101492.28;5032776;28;1097;-82
2023/07/14 08:41:00;;;;;;;;;;;;;;;19.40;66.66;101486.53;5031545;28;1331;-83
2023/07/14 08:43:44;;;;;;;;;;;;;;;19.50;67.25;101486.38;5032939;28;1324;-83
2023/07/14 08:46:09;;;;;;;;;;;;;;;19.62;67.31;101483.25;5036934;28;1411;-84
2023/07/14 08:48:39;;;;;;;;;;;;;;;19.75;66.59;101487.16;5056441;28;1300;-85
2023/07/14 08:51:23;;;;;;;;;;;;;;;19.77;66.01;101480.72;5045531;28;1171;-85
2023/07/14 08:53:49;;;;;;;;;;;;;;;19.77;65.75;101479.91;5049180;28;1236;-81
2023/07/14 08:56:16;;;;;;;;;;;;;;;19.72;64.06;101482.22;5051082;28;1253;-84
2023/07/14 08:58:43;;;;;;;;;;;;;;;19.73;65.19;101484.69;5030603;28;1216;-83
2023/07/14 09:01:27;;;;;;;;;;;;;;;19.80;65.49;101487.47;5032058;28;1527;-84
2023/07/14 09:03:59;;;;;;;;;;;;;;;19.89;65.53;101481.16;5050465;28;1975;-83
2023/07/14 09:06:30;;;;;;;;;;;;;;;19.95;63.10;101483.13;5051195;28;1213;-85
2023/07/14 09:08:55;;;;;;;;;;;;;;;19.94;63.78;101481.47;5046318;28;1136;-84
2023/07/14 09:11:36;;;;;;;;;;;;;;;19.94;64.29;101485.94;5051265;28;1282;-83
2023/07/14 09:14:13;;;;;;;;;;;;;;;19.98;65.04;101477.53;5046960;28;1158;-84
2023/07/14 09:16:45;;;;;;;;;;;;;;;20.09;64.66;101466.63;5047695;28;1480;-85
2023/07/14 09:19:26;;;;;;;;;;;;;;;20.16;64.70;101470.19;5029517;28;1380;-84
2023/07/14 09:21:57;;;;;;;;;;;;;;;20.26;64.18;101461.28;5030543;28;1262;-86
2023/07/14 09:24:22;;;;;;;;;;;;;;;20.30;63.59;101458.13;5044406;28;1882;-84
2023/07/14 09:26:56;;;;;;;;;;;;;;;20.41;63.44;101462.16;5050435;28;1280;-84
2023/07/14 09:29:25;;;;;;;;;;;;;;;20.52;63.54;101474.97;5034375;28;1290;-84
2023/07/14 09:32:02;;;;;;;;;;;;;;;20.62;63.90;101470.28;5039634;28;1284;-85
2023/07/14 09:34:37;;;;;;;;;;;;;;;20.68;61.30;101466.94;5033054;28;1223;-84
2023/07/14 09:37:11;;;;;;;;;;;;;;;20.68;61.98;101463.50;5051496;28;1296;-83
2023/07/14 09:39:40;;;;;;;;;;;;;;;20.68;62.06;101459.03;5034873;28;1359;-82
2023/07/14 09:42:10;;;;;;;;;;;;;;;20.75;60.73;101458.34;5028020;28;1483;-82
2023/07/14 09:44:35;;;;;;;;;;;;;;;20.79;59.76;101459.63;5027502;28;1898;-85
2023/07/14 09:47:03;;;;;;;;;;;;;;;20.83;59.12;101455.66;5052750;28;1260;-85
2023/07/14 09:49:39;;;;;;;;;;;;;;;20.87;61.03;101454.28;5052204;28;1249;-84
2023/07/14 09:52:23;;;;;;;;;;;;;;;20.90;60.58;101448.66;5058589;28;1414;-85
2023/07/14 09:54:50;;;;;;;;;;;;;;;20.93;60.33;101445.66;5034072;28;1445;-83
2023/07/14 09:57:17;;;;;;;;;;;;;;;20.92;59.18;101449.28;5034971;28;1261;-84
2023/07/14 10:00:05;;;;;;;;;;;;;;;20.95;59.68;101446.31;5035693;28;1242;-85
2023/07/14 10:02:31;;;;;;;;;;;;;;;21.01;59.15;101437.69;5056841;28;1158;-83
2023/07/14 10:05:04;;;;;;;;;;;;;;;21.10;60.12;101436.59;5059551;28;1969;-82
2023/07/14 10:07:35;;;;;;;;;;;;;;;21.31;59.30;101437.75;5056853;28;1296;-83
2023/07/14 10:10:15;;;;;;;;;;;;;;;21.37;58.92;101426.47;5056427;28;1448;-83
2023/07/14 10:12:48;;;;;;;;;;;;;;;21.46;58.88;101428.03;5049203;28;1315;-82
2023/07/14 10:15:26;;;;;;;;;;;;;;;21.58;58.95;101410.75;5052638;28;1095;-84
2023/07/14 10:17:53;;;;;;;;;;;;;;;21.70;58.50;101421.66;5034347;28;1307;-83
2023/07/14 10:20:19;;;;;;;;;;;;;;;21.71;57.16;101407.44;5060885;28;1305;-82
2023/07/14 10:22:48;;;;;;;;;;;;;;;21.76;58.16;101404.25;5061908;28;1253;-83
2023/07/14 10:25:16;;;;;;;;;;;;;;;21.81;58.27;101408.00;5042236;28;1966;-83
2023/07/14 10:27:49;;;;;;;;;;;;;;;21.88;58.32;101402.78;5046973;28;1257;-83
2023/07/14 10:30:33;;;;;;;;;;;;;;;21.96;58.45;101407.94;5038479;28;1261;-83
2023/07/14 10:33:00;;;;;;;;;;;;;;;22.07;58.12;101401.34;5044252;28;1225;-84
2023/07/14 10:35:29;;;;;;;;;;;;;;;22.19;57.84;101390.16;5054556;28;1689;-84
2023/07/14 10:38:09;;;;;;;;;;;;;;;22.21;57.89;101390.78;5039953;28;1465;-84
2023/07/14 10:40:41;;;;;;;;;;;;;;;22.21;57.40;101393.44;5028596;28;1563;-82
2023/07/14 10:43:20;;;;;;;;;;;;;;;22.18;56.87;101377.94;5026999;28;1200;-83
2023/07/14 10:45:49;;;;;;;;;;;;;;;22.22;57.26;101387.13;5049249;28;1956;-82
2023/07/14 10:48:17;;;;;;;;;;;;;;;22.20;57.02;101386.50;5029985;28;1383;-84
2023/07/14 10:50:48;;;;;;;;;;;;;;;22.20;57.41;101386.50;5032551;28;1476;-84
2023/07/14 10:53:13;;;;;;;;;;;;;;;22.34;56.69;101384.81;5043708;28;1096;-83
2023/07/14 10:55:39;;;;;;;;;;;;;;;22.36;55.80;101374.03;5052783;28;1260;-84
2023/07/14 10:58:10;;;;;;;;;;;;;;;22.36;56.16;101379.31;5031957;28;1414;-83
2023/07/14 11:00:45;;;;;;;;;;;;;;;22.32;56.48;101388.66;5043801;28;1253;-83
2023/07/14 11:03:19;;;;;;;;;;;;;;;22.28;56.40;101377.63;5048304;28;1634;-84
2023/07/14 11:05:52;;;;;;;;;;;;;;;22.27;56.54;101376.81;5028756;28;1899;-83
2023/07/14 11:08:17;;;;;;;;;;;;;;;22.24;56.52;101382.47;5046230;28;1049;-83
2023/07/14 11:10:42;;;;;;;;;;;;;;;22.23;56.46;101375.56;5044664;28;1204;-83
2023/07/14 11:13:19;;;;;;;;;;;;;;;22.18;56.37;101371.84;5028011;28;1312;-82
2023/07/14 11:15:47;;;;;;;;;;;;;;;22.16;56.89;101369.41;5043044;28;1365;-82
2023/07/14 11:18:15;;;;;;;;;;;;;;;22.29;56.59;101375.81;5030756;28;1461;-83
2023/07/14 11:20:45;;;;;;;;;;;;;;;22.42;57.01;101368.00;5032609;28;1224;-83
2023/07/14 11:23:23;;;;;;;;;;;;;;;22.50;56.39;101366.06;5045612;28;1088;-83
2023/07/14 11:26:01;;;;;;;;;;;;;;;22.51;55.78;101356.28;5028855;28;1902;-83
2023/07/14 11:28:37;;;;;;;;;;;;;;;22.55;56.29;101357.56;5027723;28;1306;-84
2023/07/14 11:31:05;;;;;;;;;;;;;;;22.56;56.07;101343.31;5025736;28;1306;-85
2023/07/14 11:33:36;;;;;;;;;;;;;;;22.49;54.97;101326.59;5044525;28;1315;-82
2023/07/14 11:36:03;;;;;;;;;;;;;;;22.46;55.51;101319.03;5027257;28;1253;-82
2023/07/14 11:38:34;;;;;;;;;;;;;;;22.51;54.33;101324.56;5054890;28;1573;-82
2023/07/14 11:41:00;;;;;;;;;;;;;;;22.39;55.19;101318.16;5047955;28;1076;-83
2023/07/14 11:43:29;;;;;;;;;;;;;;;22.32;55.39;101294.34;5028938;28;1223;-82
2023/07/14 11:46:02;;;;;;;;;;;;;;;22.32;55.33;101280.31;5023974;28;1950;-83
2023/07/14 11:48:36;;;;;;;;;;;;;;;22.36;55.23;101284.19;5043886;28;1194;-83
2023/07/14 11:51:06;;;;;;;;;;;;;;;22.39;55.05;101299.66;5046646;28;1018;-82
2023/07/14 11:53:33;;;;;;;;;;;;;;;22.45;54.93;101288.34;5043728;28;1335;-82
2023/07/14 11:56:12;;;;;;;;;;;;;;;22.47;55.12;101283.66;5031054;28;1538;-83
2023/07/14 11:58:39;;;;;;;;;;;;;;;22.53;55.22;101280.25;5043388;28;1301;-82
2023/07/14 12:01:16;;;;;;;;;;;;;;;22.66;55.16;101280.34;5044786;28;1209;-82
2023/07/14 12:03:47;;;;;;;;;;;;;;;22.83;54.27;101282.69;5047291;28;1272;-83
2023/07/14 12:06:18;;;;;;;;;;;;;;;22.88;54.41;101273.19;5029279;28;1274;-83
2023/07/14 12:08:43;;;;;;;;;;;;;;;22.96;54.13;101280.16;5050733;28;1277;-81
2023/07/14 12:11:28;;;;;;;;;;;;;;;23.02;54.20;101268.78;5031150;28;1403;-82
2023/07/14 12:13:54;;;;;;;;;;;;;;;23.14;54.02;101283.09;5051439;28;1106;-82
2023/07/14 12:16:22;;;;;;;;;;;;;;;23.25;53.69;101271.94;5030131;28;1520;-82
2023/07/14 12:18:58;;;;;;;;;;;;;;;23.39;52.81;101264.03;5029304;28;1228;-83
2023/07/14 12:21:32;;;;;;;;;;;;;;;23.47;53.71;101261.22;5041064;28;1387;-83
2023/07/14 12:24:00;;;;;;;;;;;;;;;23.56;52.38;101265.31;5032345;28;1902;-82
2023/07/14 12:26:31;;;;;;;;;;;;;;;23.57;53.09;101261.66;5014427;28;1490;-83
2023/07/14 12:28:59;;;;;;;;;;;;;;;23.61;53.55;101248.81;5025721;28;1330;-82
2023/07/14 12:31:25;;;;;;;;;;;;;;;23.71;52.99;101258.03;5026141;28;1228;-83
2023/07/14 12:33:54;;;;;;;;;;;;;;;23.79;52.68;101249.91;5024519;28;1194;-82
2023/07/14 12:36:20;;;;;;;;;;;;;;;23.82;52.77;101230.97;5019303;28;1343;-83
2023/07/14 12:38:49;;;;;;;;;;;;;;;23.89;52.58;101228.31;5043033;28;1064;-82
2023/07/14 12:41:16;;;;;;;;;;;;;;;23.90;52.87;101229.13;5034082;28;1272;-83
2023/07/14 12:43:46;;;;;;;;;;;;;;;23.95;52.52;101221.38;5035278;28;1227;-83
2023/07/14 12:46:18;;;;;;;;;;;;;;;23.93;52.54;101224.25;5038529;28;1315;-83
2023/07/14 12:48:44;;;;;;;;;;;;;;;23.96;52.72;101223.00;5023620;28;1357;-82
2023/07/14 12:51:18;;;;;;;;;;;;;;;24.00;52.95;101219.75;5027636;28;1274;-82